Time;durP1;ratioP1;P1;durP2;ratioP2;P2;SDS_P1;SDS_P2;PMS_P1;PMS_P2;Temp;Humidity;BMP_temperature;BMP_pressure;BME280_temperature;BME280_humidity;BME280_pressure;Samples;Min_cycle;Max_cycle;Signal;HPM_P1;HPM_P2
2022/02/24 00:00:51;;;;;;;7.40;3.13;;;4.50;99.90;;;5.20;90.40;-19903.75;5031824;28;20222;-60
2022/02/24 00:03:19;;;;;;;5.37;3.33;;;4.50;99.90;;;5.43;88.90;-19911.63;5032113;28;20315;-61
2022/02/24 00:05:47;;;;;;;3.77;2.53;;;4.50;99.90;;;5.22;89.50;-19904.44;5032005;28;20268;-60
2022/02/24 00:08:15;;;;;;;5.80;3.33;;;4.50;99.90;;;5.20;90.23;-19903.75;5032071;28;20318;-61
2022/02/24 00:10:43;;;;;;;6.57;2.80;;;4.40;99.90;;;5.10;91.19;-19900.34;5032082;28;20250;-62
2022/02/24 00:13:13;;;;;;;6.17;3.00;;;4.40;99.90;;;5.16;90.35;-19902.56;5031550;28;20810;-61
2022/02/24 00:15:41;;;;;;;5.60;2.97;;;4.40;99.90;;;5.20;89.05;-19903.94;5032270;28;20307;-61
2022/02/24 00:18:09;;;;;;;5.73;2.83;;;4.40;99.90;;;5.25;89.36;-19905.63;5031744;28;20230;-60
2022/02/24 00:20:37;;;;;;;8.27;2.80;;;4.40;99.90;;;5.07;90.41;-19899.50;5031812;28;20234;-61
2022/02/24 00:23:06;;;;;;;3.60;2.60;;;4.30;99.90;;;4.97;90.85;-19896.06;5031878;28;20312;-61
2022/02/24 00:25:34;;;;;;;5.30;3.17;;;4.30;99.90;;;4.78;91.99;-19889.75;5031516;28;20306;-62
2022/02/24 00:28:02;;;;;;;3.93;2.73;;;4.20;99.90;;;4.60;93.97;-19883.59;5036883;28;20204;-61
2022/02/24 00:30:31;;;;;;;6.33;3.07;;;4.00;99.90;;;4.46;94.38;-19878.81;5051360;28;20299;-61
2022/02/24 00:32:59;;;;;;;5.07;2.80;;;3.90;99.90;;;4.26;96.83;-19871.78;5051328;28;20775;-60
2022/02/24 00:35:27;;;;;;;6.90;3.10;;;3.80;99.90;;;4.50;95.70;-19880.16;5046477;28;20310;-61
2022/02/24 00:37:55;;;;;;;5.23;2.70;;;3.70;99.90;;;4.46;95.63;-19878.63;5031332;28;20723;-62
2022/02/24 00:40:23;;;;;;;5.90;2.87;;;3.70;99.90;;;4.51;95.05;-19880.50;5031346;28;20233;-61
2022/02/24 00:42:51;;;;;;;5.03;3.00;;;3.70;99.90;;;4.53;95.33;-19881.19;5031619;28;20211;-60
2022/02/24 00:45:21;;;;;;;6.30;3.03;;;3.70;99.90;;;4.40;96.34;-19876.75;5031138;28;20724;-60
2022/02/24 00:47:50;;;;;;;4.70;2.70;;;3.70;99.90;;;4.32;96.33;-19874.03;5031341;28;20235;-60
2022/02/24 00:50:18;;;;;;;5.37;2.80;;;3.70;99.90;;;4.46;95.43;-19878.81;5031131;28;20317;-60
2022/02/24 00:52:46;;;;;;;5.07;2.93;;;3.70;99.90;;;4.54;94.14;-19881.53;5031015;28;20775;-60
2022/02/24 00:55:15;;;;;;;5.07;2.30;;;3.70;99.90;;;4.38;95.64;-19876.06;5030880;28;20744;-61
2022/02/24 00:57:43;;;;;;;3.63;2.10;;;3.70;99.90;;;4.63;93.72;-19884.44;5031665;28;20209;-60
2022/02/24 01:00:13;;;;;;;4.47;2.50;;;3.80;99.90;;;4.54;94.53;-19881.53;5030862;28;20321;-62
2022/02/24 01:02:41;;;;;;;7.87;2.30;;;3.80;99.90;;;4.59;92.95;-19883.06;5031054;28;20262;-60
2022/02/24 01:05:11;;;;;;;4.00;2.43;;;3.80;99.90;;;4.60;94.30;-19883.59;5030922;28;20239;-61
2022/02/24 01:07:39;;;;;;;5.60;2.67;;;3.80;99.90;;;4.51;94.08;-19880.34;5031345;28;20308;-61
2022/02/24 01:10:09;;;;;;;4.57;2.13;;;3.80;99.90;;;4.58;94.36;-19882.91;5031081;28;20245;-60
2022/02/24 01:12:38;;;;;;;4.97;2.40;;;3.80;99.90;;;4.39;94.67;-19876.41;5031320;28;20199;-60
2022/02/24 01:15:08;;;;;;;5.67;2.30;;;3.70;99.90;;;4.31;95.82;-19873.66;5031475;28;20252;-60
2022/02/24 01:17:37;;;;;;;3.70;2.20;;;3.70;99.90;;;4.28;96.45;-19872.47;5031099;28;20508;-60
2022/02/24 01:20:08;;;;;;;6.10;2.43;;;3.60;99.90;;;4.45;94.75;-19878.47;5030533;28;20284;-60
2022/02/24 01:22:38;;;;;;;4.33;2.23;;;3.70;99.90;;;4.40;94.78;-19876.75;5031063;28;20301;-59
2022/02/24 01:25:08;;;;;;;3.63;2.20;;;3.70;99.90;;;4.55;93.46;-19881.72;5042802;28;20627;-61
2022/02/24 01:27:36;;;;;;;7.23;2.90;;;3.70;99.90;;;4.71;92.64;-19887.34;5048306;28;20210;-60
2022/02/24 01:30:05;;;;;;;5.47;2.00;;;3.80;99.90;;;4.80;91.98;-19890.41;5030843;28;20254;-59
2022/02/24 01:32:33;;;;;;;3.97;1.70;;;3.90;99.90;;;4.73;91.84;-19887.88;5030412;28;20305;-61
2022/02/24 01:35:01;;;;;;;3.77;2.00;;;3.90;99.90;;;4.85;91.65;-19892.13;5030840;28;20314;-60
2022/02/24 01:37:29;;;;;;;6.40;2.17;;;3.90;99.90;;;4.90;91.17;-19893.84;5030298;28;20784;-59
2022/02/24 01:39:59;;;;;;;3.17;2.10;;;4.00;99.90;;;4.94;89.58;-19895.03;5031081;28;20341;-60
2022/02/24 01:42:29;;;;;;;4.53;2.13;;;4.00;99.90;;;4.79;90.31;-19889.91;5029995;28;20326;-60
2022/02/24 01:44:57;;;;;;;3.67;1.90;;;4.00;99.90;;;4.73;90.40;-19888.03;5030351;28;20616;-60
2022/02/24 01:47:26;;;;;;;3.47;2.20;;;4.00;99.90;;;4.54;91.74;-19881.38;5030506;28;20306;-61
2022/02/24 01:49:54;;;;;;;5.70;2.10;;;3.90;99.90;;;4.65;91.26;-19885.13;5030765;28;20241;-60
2022/02/24 01:52:23;;;;;;;6.20;2.13;;;3.90;99.90;;;4.81;90.48;-19890.78;5030654;28;20231;-60
2022/02/24 01:54:51;;;;;;;8.77;2.20;;;3.90;99.90;;;5.25;87.66;-19905.63;5030997;28;20207;-60
2022/02/24 01:57:22;;;;;;;4.33;2.33;;;4.10;99.90;;;5.13;88.50;-19901.38;5030041;28;20231;-60
2022/02/24 01:59:51;;;;;;;4.80;2.07;;;4.20;99.90;;;5.23;87.13;-19904.78;5030039;28;20738;-60
2022/02/24 02:02:19;;;;;;;6.50;2.20;;;4.30;99.90;;;5.30;86.60;-19907.19;5030205;28;20223;-60
2022/02/24 02:04:47;;;;;;;6.77;2.20;;;4.30;99.90;;;5.12;87.20;-19901.19;5030601;28;20641;-59
2022/02/24 02:07:17;;;;;;;5.53;2.43;;;4.30;99.90;;;5.08;87.62;-19899.81;5030606;28;20601;-61
2022/02/24 02:09:45;;;;;;;3.97;2.13;;;4.30;99.90;;;5.06;87.65;-19898.97;5031009;28;20195;-60
2022/02/24 02:12:13;;;;;;;4.73;2.00;;;4.30;99.90;;;4.93;88.56;-19894.88;5030236;28;20466;-61
2022/02/24 02:14:43;;;;;;;5.87;2.00;;;4.20;99.90;;;5.09;87.97;-19900.16;5012318;28;20311;-60
2022/02/24 02:17:12;;;;;;;4.17;1.87;;;4.20;99.90;;;5.33;86.93;-19908.38;5019104;28;20228;-60
2022/02/24 02:19:40;;;;;;;3.73;1.87;;;4.40;99.90;;;4.97;88.49;-19896.22;5030423;28;20525;-60
2022/02/24 02:22:09;;;;;;;5.17;2.10;;;4.30;99.90;;;4.93;89.70;-19894.88;5029916;28;20202;-59
2022/02/24 02:24:40;;;;;;;4.53;2.20;;;4.30;99.90;;;4.78;90.58;-19889.75;5032732;28;20301;-60
2022/02/24 02:27:08;;;;;;;6.23;2.10;;;4.20;99.90;;;4.82;90.54;-19890.94;5033618;28;20307;-60
2022/02/24 02:29:38;;;;;;;4.23;1.83;;;4.10;99.90;;;5.22;88.44;-19904.44;5033503;28;20234;-61
2022/02/24 02:32:08;;;;;;;3.77;1.83;;;4.30;99.90;;;5.22;88.48;-19904.63;5033933;28;20251;-59
2022/02/24 02:34:35;;;;;;;2.67;1.77;;;4.30;99.90;;;5.29;87.78;-19906.84;5033997;28;20637;-60
2022/02/24 02:37:04;;;;;;;5.23;2.87;;;4.40;99.90;;;5.33;87.13;-19908.19;5034021;28;20306;-59
2022/02/24 02:39:33;;;;;;;4.03;2.30;;;4.50;99.90;;;5.22;88.12;-19904.63;5054083;28;20248;-61
2022/02/24 02:42:01;;;;;;;3.97;2.17;;;4.40;99.90;;;5.25;87.72;-19905.63;5053866;28;20233;-59
2022/02/24 02:44:29;;;;;;;5.30;2.30;;;4.40;99.90;;;5.01;88.68;-19897.25;5053325;28;20225;-60
2022/02/24 02:46:57;;;;;;;6.23;2.37;;;4.40;99.90;;;5.20;88.50;-19903.94;5053712;28;20637;-60
2022/02/24 02:49:25;;;;;;;4.13;2.03;;;4.30;99.90;;;4.84;90.60;-19891.78;5053687;28;20656;-59
2022/02/24 02:51:53;;;;;;;2.83;1.90;;;4.30;99.90;;;5.00;90.26;-19897.09;5054259;28;20203;-60
2022/02/24 02:54:22;;;;;;;5.30;2.00;;;4.20;99.90;;;4.66;91.72;-19885.63;5053545;28;20314;-60
2022/02/24 02:56:52;;;;;;;4.87;2.30;;;4.10;99.90;;;5.06;90.14;-19899.13;5053553;28;20233;-60
2022/02/24 02:59:20;;;;;;;6.33;2.00;;;4.20;99.90;;;5.13;89.47;-19901.53;5053148;28;20226;-60
2022/02/24 03:01:52;;;;;;;3.93;2.00;;;4.30;99.90;;;5.20;89.38;-19903.94;5053231;28;20342;-61
2022/02/24 03:04:20;;;;;;;4.37;2.33;;;4.30;99.90;;;5.05;89.78;-19898.81;5053206;28;20290;-60
2022/02/24 03:06:49;;;;;;;5.00;2.40;;;4.30;99.90;;;5.09;89.87;-19900.00;5053485;28;20238;-60
2022/02/24 03:09:17;;;;;;;3.70;2.20;;;4.30;99.90;;;5.04;90.43;-19898.47;5053015;28;20225;-59
2022/02/24 03:11:45;;;;;;;3.50;2.00;;;4.30;99.90;;;5.17;90.33;-19902.91;5053145;28;20317;-60
2022/02/24 03:14:14;;;;;;;3.77;1.97;;;4.30;99.90;;;5.10;90.06;-19900.50;5052522;28;20231;-60
2022/02/24 03:16:42;;;;;;;5.40;2.20;;;4.30;99.90;;;5.06;90.20;-19899.13;5053944;28;20218;-60
2022/02/24 03:19:11;;;;;;;8.40;3.57;;;4.30;99.90;;;5.01;91.06;-19897.44;5052840;28;20778;-59
2022/02/24 03:21:39;;;;;;;6.67;2.47;;;4.20;99.90;;;5.13;90.18;-19901.53;5053426;28;20232;-60
2022/02/24 03:24:07;;;;;;;4.53;2.53;;;4.30;99.90;;;4.99;91.83;-19896.91;5052774;28;20242;-61
2022/02/24 03:26:39;;;;;;;3.97;2.43;;;4.20;99.90;;;5.10;90.74;-19900.50;5053081;28;20700;-60
2022/02/24 03:29:07;;;;;;;4.90;2.50;;;4.20;99.90;;;4.89;91.48;-19893.50;5052881;28;20257;-60
2022/02/24 03:31:36;;;;;;;4.10;2.30;;;4.20;99.90;;;4.72;93.78;-19887.69;5053178;28;20285;-60
2022/02/24 03:34:05;;;;;;;4.23;1.90;;;4.10;99.90;;;5.06;91.25;-19898.97;5053197;28;20207;-60
2022/02/24 03:36:33;;;;;;;6.27;2.17;;;4.10;99.90;;;4.83;92.36;-19891.28;5053274;28;20225;-60
2022/02/24 03:39:02;;;;;;;4.93;2.10;;;4.20;99.90;;;4.71;93.85;-19887.34;5052449;28;20228;-61
2022/02/24 03:41:30;;;;;;;4.30;2.23;;;4.10;99.90;;;4.44;95.71;-19877.94;5052364;28;20321;-60
2022/02/24 03:43:58;;;;;;;3.73;2.17;;;3.90;99.90;;;4.74;95.24;-19888.38;5052053;28;20231;-61
2022/02/24 03:46:26;;;;;;;4.83;2.20;;;3.90;99.90;;;4.61;95.98;-19883.94;5052604;28;20229;-60
2022/02/24 03:48:56;;;;;;;4.90;2.30;;;3.90;99.90;;;4.63;95.43;-19884.44;5052883;28;20234;-60
2022/02/24 03:51:24;;;;;;;6.17;2.20;;;3.90;99.90;;;4.61;96.31;-19883.75;5052173;28;20275;-62
2022/02/24 03:53:52;;;;;;;4.97;2.40;;;3.90;99.90;;;4.82;94.56;-19891.09;5052168;28;20313;-61
2022/02/24 03:56:20;;;;;;;3.83;2.30;;;3.90;99.90;;;4.86;94.36;-19892.31;5051978;28;20235;-61
2022/02/24 03:58:48;;;;;;;3.90;2.00;;;3.90;99.90;;;4.84;94.47;-19891.63;5051877;28;20309;-63
2022/02/24 04:01:16;;;;;;;4.90;2.27;;;3.90;99.90;;;4.64;95.79;-19884.78;5052318;28;20230;-62
2022/02/24 04:03:44;;;;;;;5.57;2.13;;;3.90;99.90;;;4.78;94.16;-19889.75;5052784;28;20223;-61
2022/02/24 04:06:15;;;;;;;5.40;2.57;;;4.00;99.90;;;4.70;95.03;-19887.00;5051853;28;20724;-60
2022/02/24 04:08:43;;;;;;;4.23;2.40;;;4.00;99.90;;;4.79;94.54;-19889.91;5051660;28;20314;-59
2022/02/24 04:11:11;;;;;;;6.83;2.70;;;4.00;99.90;;;4.79;94.39;-19890.09;5052048;28;20301;-61
2022/02/24 04:13:39;;;;;;;2.90;1.90;;;4.00;99.90;;;4.83;94.60;-19891.44;5051374;28;20273;-60
2022/02/24 04:16:07;;;;;;;6.90;2.17;;;4.00;99.90;;;4.69;95.52;-19886.66;5052278;28;20289;-61
2022/02/24 04:18:35;;;;;;;6.63;2.10;;;4.00;99.90;;;5.05;93.20;-19898.63;5052229;28;20722;-63
2022/02/24 04:21:03;;;;;;;3.40;2.20;;;4.10;99.90;;;5.06;93.16;-19899.13;5051686;28;20693;-60
2022/02/24 04:23:33;;;;;;;3.97;2.00;;;4.10;99.90;;;4.81;93.87;-19890.78;5051700;28;20336;-61
2022/02/24 04:26:01;;;;;;;5.23;2.20;;;4.10;99.90;;;4.73;95.33;-19887.88;5051815;28;20221;-60
2022/02/24 04:28:29;;;;;;;4.60;2.40;;;4.00;99.90;;;4.70;95.47;-19887.00;5051282;28;20310;-61
2022/02/24 04:30:57;;;;;;;5.23;2.30;;;4.00;99.90;;;4.80;94.96;-19890.41;5052763;28;20240;-61
2022/02/24 04:33:25;;;;;;;3.47;2.03;;;4.00;99.90;;;4.52;96.21;-19880.84;5051385;28;20234;-60
2022/02/24 04:35:53;;;;;;;5.47;2.07;;;3.90;99.90;;;4.59;95.98;-19883.25;5051434;28;20228;-59
2022/02/24 04:38:21;;;;;;;4.13;2.60;;;3.90;99.90;;;4.61;95.87;-19883.94;5051075;28;20227;-59
2022/02/24 04:40:50;;;;;;;4.73;2.30;;;3.90;99.90;;;4.72;95.62;-19887.50;5051242;28;20306;-60
2022/02/24 04:43:18;;;;;;;5.00;2.30;;;3.80;99.90;;;4.78;95.02;-19889.75;5050970;28;20906;-60
2022/02/24 04:45:46;;;;;;;9.40;2.20;;;3.90;99.90;;;4.86;94.55;-19892.47;5051780;28;20198;-59
2022/02/24 04:48:14;;;;;;;3.27;1.90;;;4.00;99.90;;;4.68;95.65;-19886.16;5050865;28;20230;-60
2022/02/24 04:50:42;;;;;;;6.10;2.57;;;3.90;99.90;;;4.86;94.73;-19892.47;5051079;28;20248;-60
2022/02/24 04:53:10;;;;;;;3.97;2.20;;;3.90;99.90;;;4.87;93.82;-19892.81;5051162;28;20256;-60
2022/02/24 04:55:38;;;;;;;3.90;2.27;;;4.10;99.90;;;4.65;96.06;-19885.13;5050914;28;20739;-59
2022/02/24 04:58:08;;;;;;;5.60;2.27;;;4.00;99.90;;;4.79;95.23;-19890.09;5051255;28;20201;-60
2022/02/24 05:00:37;;;;;;;6.00;2.70;;;4.00;99.90;;;4.92;95.00;-19894.34;5051404;28;20295;-59
2022/02/24 05:03:05;;;;;;;5.67;2.10;;;4.00;99.90;;;4.91;94.65;-19894.00;5051022;28;20764;-60
2022/02/24 05:05:33;;;;;;;5.37;2.40;;;4.10;99.90;;;5.19;93.31;-19903.59;5050660;28;20314;-60
2022/02/24 05:08:02;;;;;;;3.63;2.40;;;4.20;99.90;;;5.10;93.07;-19900.34;5051194;28;20223;-59
2022/02/24 05:10:30;;;;;;;3.53;2.07;;;4.20;99.90;;;5.19;92.13;-19903.41;5050419;28;20712;-60
2022/02/24 05:12:59;;;;;;;3.87;2.30;;;4.30;99.90;;;5.05;93.10;-19898.81;5051410;28;20201;-59
2022/02/24 05:15:28;;;;;;;4.03;2.33;;;4.30;99.90;;;5.22;93.38;-19904.63;5050478;28;20236;-60
2022/02/24 05:17:56;;;;;;;6.27;2.63;;;4.30;99.90;;;5.40;92.04;-19910.59;5050972;28;20247;-60
2022/02/24 05:20:30;;;;;;;3.70;2.40;;;4.40;99.90;;;5.45;91.66;-19912.31;5051564;28;20227;-60
2022/02/24 05:22:58;;;;;;;4.90;2.40;;;4.50;99.90;;;5.33;92.11;-19908.19;5051050;28;20236;-60
2022/02/24 05:25:26;;;;;;;4.60;2.67;;;4.50;99.90;;;5.20;93.16;-19903.94;5050522;28;20252;-61
2022/02/24 05:27:54;;;;;;;7.23;2.30;;;4.50;99.90;;;5.34;92.56;-19908.53;5051051;28;20201;-60
2022/02/24 05:30:22;;;;;;;2.93;2.07;;;4.50;99.90;;;5.12;93.41;-19901.19;5050261;28;20226;-60
2022/02/24 05:32:51;;;;;;;5.97;2.70;;;4.50;99.90;;;5.20;93.64;-19903.94;5050924;28;20262;-58
2022/02/24 05:35:19;;;;;;;4.70;2.60;;;4.40;99.90;;;5.59;90.91;-19917.25;5050454;28;20234;-60
2022/02/24 05:37:47;;;;;;;5.47;2.50;;;4.60;99.90;;;5.34;91.12;-19908.72;5050575;28;20224;-61
2022/02/24 05:40:15;;;;;;;5.73;2.10;;;4.60;99.90;;;5.46;92.37;-19912.66;5050588;28;20229;-62
2022/02/24 05:42:44;;;;;;;5.67;2.23;;;4.60;99.90;;;5.64;91.28;-19918.97;5050864;28;20226;-60
2022/02/24 05:45:12;;;;;;;4.03;2.60;;;4.60;99.90;;;5.79;90.06;-19923.94;5049964;28;20342;-60
2022/02/24 05:47:40;;;;;;;4.60;2.20;;;4.70;99.90;;;5.79;89.84;-19923.94;5050498;28;20253;-61
2022/02/24 05:50:10;;;;;;;4.90;2.10;;;4.80;99.90;;;5.88;90.32;-19927.00;5050137;28;20779;-60
2022/02/24 05:52:39;;;;;;;8.60;2.50;;;4.80;99.90;;;5.83;89.74;-19925.31;5050728;28;20319;-60
2022/02/24 05:55:08;;;;;;;3.90;2.10;;;4.90;99.90;;;5.58;91.20;-19916.75;5050393;28;20227;-60
2022/02/24 05:57:36;;;;;;;6.20;2.20;;;4.80;99.90;;;5.69;91.24;-19920.69;5050590;28;20619;-60
2022/02/24 06:00:06;;;;;;;5.10;2.33;;;4.80;99.90;;;5.82;90.30;-19924.94;5052214;28;20647;-59
2022/02/24 06:02:34;;;;;;;6.73;2.47;;;4.90;99.90;;;5.85;90.37;-19925.97;5054304;28;20227;-60
2022/02/24 06:05:02;;;;;;;4.10;2.33;;;4.90;99.90;;;5.92;90.11;-19928.53;5054092;28;20729;-60
2022/02/24 06:07:31;;;;;;;5.83;2.30;;;4.90;99.90;;;5.93;89.63;-19928.88;5054285;28;20231;-60
2022/02/24 06:09:59;;;;;;;5.83;2.30;;;5.00;99.90;;;6.08;89.16;-19933.84;5054157;28;20244;-62
2022/02/24 06:12:27;;;;;;;5.30;2.83;;;5.00;99.90;;;6.30;87.71;-19941.19;5053959;28;20252;-60
2022/02/24 06:14:55;;;;;;;5.53;2.47;;;5.10;99.90;;;6.17;88.57;-19937.09;5053964;28;20250;-60
2022/02/24 06:17:23;;;;;;;5.67;2.50;;;5.10;99.90;;;6.04;89.45;-19932.47;5054165;28;20230;-60
2022/02/24 06:19:53;;;;;;;3.53;2.40;;;5.20;99.90;;;6.09;88.38;-19934.19;5053985;28;20722;-59
2022/02/24 06:22:21;;;;;;;8.33;2.90;;;5.20;99.90;;;6.10;89.08;-19934.69;5053710;28;20687;-60
2022/02/24 06:24:51;;;;;;;4.40;2.60;;;5.20;99.90;;;6.38;87.21;-19943.94;5054585;28;20285;-58
2022/02/24 06:27:20;;;;;;;4.83;2.40;;;5.30;99.90;;;6.43;87.56;-19945.81;5053253;28;20227;-60
2022/02/24 06:29:49;;;;;;;3.97;2.33;;;5.40;99.90;;;6.24;88.13;-19939.31;5053801;28;20636;-60
2022/02/24 06:32:17;;;;;;;5.73;2.67;;;5.40;99.90;;;6.42;87.64;-19945.47;5053073;28;20742;-60
2022/02/24 06:34:45;;;;;;;8.13;4.50;;;5.40;99.90;;;6.29;88.33;-19941.03;5053746;28;20232;-59
2022/02/24 06:37:14;;;;;;;3.60;2.37;;;5.40;99.90;;;6.44;87.26;-19945.97;5053546;28;20215;-60
2022/02/24 06:39:42;;;;;;;3.50;2.33;;;5.50;99.90;;;6.67;86.49;-19954.00;5054237;28;20229;-60
2022/02/24 06:42:12;;;;;;;4.40;2.47;;;5.50;99.90;;;6.69;85.79;-19954.69;5053136;28;20304;-63
2022/02/24 06:44:40;;;;;;;4.97;2.80;;;5.60;99.90;;;6.60;85.76;-19951.44;5053230;28;20251;-61
2022/02/24 06:47:08;;;;;;;5.33;2.60;;;5.60;99.90;;;6.69;85.38;-19954.53;5053072;28;20229;-61
2022/02/24 06:49:37;;;;;;;6.40;2.37;;;5.60;99.90;;;6.66;86.24;-19953.50;5053429;28;20311;-59
2022/02/24 06:52:06;;;;;;;5.47;2.40;;;5.70;99.90;;;6.65;86.09;-19953.16;5053196;28;20274;-60
2022/02/24 06:54:34;;;;;;;5.63;2.90;;;5.70;99.90;;;6.85;84.94;-19960.16;5053693;28;20295;-60
2022/02/24 06:57:06;;;;;;;4.20;2.57;;;5.70;99.90;;;6.75;85.35;-19956.75;5052902;28;20224;-59
2022/02/24 06:59:37;;;;;;;5.37;2.60;;;5.80;99.90;;;6.71;85.88;-19955.38;5052553;28;20290;-60
2022/02/24 07:02:06;;;;;;;3.83;2.80;;;5.80;99.90;;;6.65;86.00;-19953.16;5053001;28;20229;-60
2022/02/24 07:04:35;;;;;;;4.80;2.43;;;5.80;99.90;;;6.94;84.58;-19963.06;5053237;28;20224;-61
2022/02/24 07:07:05;;;;;;;4.27;2.47;;;5.90;99.90;;;6.96;85.05;-19963.91;5053066;28;20664;-60
2022/02/24 07:09:33;;;;;;;7.20;2.50;;;5.90;99.90;;;7.11;84.07;-19968.88;5052777;28;20201;-61
2022/02/24 07:12:01;;;;;;;3.47;2.43;;;6.00;99.90;;;7.23;84.11;-19972.97;5052292;28;20235;-59
2022/02/24 07:14:29;;;;;;;5.50;2.30;;;6.10;99.90;;;7.29;83.90;-19975.19;5052262;28;20311;-60
2022/02/24 07:16:58;;;;;;;5.60;2.73;;;6.20;99.90;;;7.26;83.74;-19974.00;5052734;28;20226;-59
2022/02/24 07:19:29;;;;;;;2.73;2.50;;;6.20;99.90;;;7.24;83.96;-19973.50;5053055;28;20225;-59
2022/02/24 07:21:57;;;;;;;4.37;2.40;;;6.20;99.90;;;7.05;84.44;-19966.81;5053090;28;20680;-60
2022/02/24 07:24:24;;;;;;;4.87;2.30;;;6.20;99.90;;;7.34;83.60;-19976.91;5052908;28;20237;-60
2022/02/24 07:26:52;;;;;;;3.70;2.37;;;6.20;99.90;;;7.42;82.59;-19979.63;5052769;28;20225;-61
2022/02/24 07:29:20;;;;;;;3.70;2.53;;;6.30;99.90;;;7.29;83.25;-19975.03;5052374;28;20222;-59
2022/02/24 07:31:49;;;;;;;3.73;2.40;;;6.30;99.90;;;7.24;83.74;-19973.50;5052971;28;20221;-60
2022/02/24 07:34:18;;;;;;;4.67;2.80;;;6.30;99.90;;;7.27;83.13;-19974.50;5052684;28;20204;-60
2022/02/24 07:36:46;;;;;;;4.20;2.50;;;6.30;99.90;;;7.29;83.80;-19975.19;5052890;28;20215;-61
2022/02/24 07:39:15;;;;;;;4.23;2.40;;;6.40;99.90;;;7.31;84.60;-19975.88;5052395;28;20250;-60
2022/02/24 07:41:44;;;;;;;5.70;2.73;;;6.30;99.90;;;7.21;84.21;-19972.28;5052324;28;20315;-58
2022/02/24 07:44:14;;;;;;;3.20;2.40;;;6.30;99.90;;;7.29;83.67;-19975.19;5052083;28;20228;-63
2022/02/24 07:46:43;;;;;;;4.93;2.40;;;6.30;99.90;;;7.54;82.74;-19983.56;5052342;28;20232;-60
2022/02/24 07:49:11;;;;;;;4.13;2.50;;;6.40;99.90;;;7.56;82.98;-19984.25;5052205;28;20734;-61
2022/02/24 07:51:43;;;;;;;5.40;2.83;;;6.50;99.90;;;7.68;82.35;-19988.19;5052600;28;20201;-59
2022/02/24 07:54:10;;;;;;;4.83;2.90;;;6.60;99.90;;;7.79;82.07;-19991.94;5051905;28;20798;-60
2022/02/24 07:56:38;;;;;;;5.13;2.67;;;6.70;99.90;;;7.64;83.08;-19987.00;5051899;28;20671;-60
2022/02/24 07:59:06;;;;;;;5.20;2.70;;;6.80;99.90;;;7.97;81.69;-19998.25;5050760;28;20337;-60
2022/02/24 08:01:34;;;;;;;5.53;2.30;;;6.80;99.90;;;8.08;80.37;-20002.03;5051413;28;20311;-60
2022/02/24 08:04:02;;;;;;;5.17;2.70;;;6.90;99.90;;;8.19;80.54;-20005.78;5052044;28;20224;-63
2022/02/24 08:06:31;;;;;;;6.20;2.93;;;7.00;99.90;;;8.15;80.66;-20004.41;5037474;28;20316;-61
2022/02/24 08:09:00;;;;;;;4.87;2.50;;;7.00;99.90;;;8.06;79.81;-20001.16;5042166;28;20197;-62
2022/02/24 08:11:28;;;;;;;4.60;2.53;;;7.00;99.90;;;8.05;80.42;-20000.84;5039537;28;20194;-61
2022/02/24 08:13:56;;;;;;;5.03;2.60;;;7.10;99.90;;;8.20;80.35;-20005.97;5043332;28;20225;-60
2022/02/24 08:16:24;;;;;;;4.43;2.50;;;7.00;99.90;;;8.16;80.82;-20004.59;5050974;28;20597;-57
2022/02/24 08:18:52;;;;;;;3.10;2.67;;;6.90;99.90;;;8.08;80.88;-20001.84;5051502;28;20243;-59
2022/02/24 08:21:22;;;;;;;6.70;2.60;;;7.00;99.90;;;8.06;80.84;-20001.34;5050996;28;20575;-58
2022/02/24 08:23:50;;;;;;;5.63;2.93;;;7.00;99.90;;;7.76;82.78;-19990.91;5042175;28;20301;-57
2022/02/24 08:26:20;;;;;;;5.03;2.70;;;6.90;99.90;;;7.73;83.77;-19989.91;5032124;28;20202;-54
2022/02/24 08:28:50;;;;;;;4.03;2.97;;;6.90;99.90;;;7.92;82.34;-19996.56;5030716;28;20312;-57
2022/02/24 08:31:18;;;;;;;9.53;3.13;;;6.90;99.90;;;8.07;80.69;-20001.50;5031285;28;20313;-53
2022/02/24 08:33:46;;;;;;;5.77;2.77;;;7.00;99.90;;;8.11;80.40;-20002.88;5031205;28;20701;-57
2022/02/24 08:36:15;;;;;;;5.23;2.73;;;7.00;99.90;;;8.09;80.04;-20002.38;5031181;28;20218;-55
2022/02/24 08:38:43;;;;;;;4.70;2.93;;;7.10;99.90;;;8.12;80.49;-20003.22;5031128;28;20305;-56
2022/02/24 08:41:33;;;;;;;6.23;3.13;;;7.10;99.90;;;8.24;80.11;-20007.31;5045035;28;20214;-55
2022/02/24 08:44:01;;;;;;;6.60;3.00;;;7.10;99.90;;;8.30;79.68;-20009.38;5050585;28;20413;-60
2022/02/24 08:46:29;;;;;;;5.67;2.93;;;7.10;99.90;;;8.43;79.28;-20014.00;5050794;28;20712;-59
2022/02/24 08:48:57;;;;;;;5.83;2.83;;;7.30;99.90;;;8.66;78.41;-20021.50;5050997;28;20787;-60
2022/02/24 08:51:25;;;;;;;4.67;2.40;;;7.30;99.90;;;8.87;76.83;-20028.84;5051055;28;20229;-59
2022/02/24 08:53:53;;;;;;;3.73;2.83;;;7.50;99.90;;;9.08;76.55;-20035.84;5051227;28;20209;-56
2022/02/24 08:56:21;;;;;;;4.27;2.30;;;7.60;99.90;;;9.35;74.11;-20045.25;5051897;28;20199;-57
2022/02/24 08:58:50;;;;;;;4.10;2.77;;;7.90;99.90;;;9.29;74.48;-20043.19;5050536;28;20608;-56
2022/02/24 09:01:18;;;;;;;4.40;3.00;;;7.90;99.90;;;9.18;74.00;-20039.28;5051164;28;20255;-52
2022/02/24 09:03:46;;;;;;;4.93;2.80;;;8.00;99.90;;;8.93;74.86;-20030.72;5050754;28;20313;-61
2022/02/24 09:06:16;;;;;;;4.03;2.60;;;7.90;99.90;;;8.83;75.26;-20027.47;5050879;28;20249;-60
2022/02/24 09:08:44;;;;;;;6.67;3.40;;;7.80;99.90;;;8.80;77.14;-20026.28;5051077;28;20276;-57
2022/02/24 09:11:13;;;;;;;5.87;3.70;;;7.70;99.90;;;8.96;76.05;-20031.75;5051656;28;20197;-57
2022/02/24 09:13:42;;;;;;;8.23;2.93;;;7.70;99.90;;;8.96;75.73;-20031.75;5041019;28;20217;-57
2022/02/24 09:16:12;;;;;;;5.20;2.90;;;7.80;99.90;;;9.23;74.53;-20040.97;5048439;28;20229;-55
2022/02/24 09:18:40;;;;;;;5.53;2.60;;;7.90;99.90;;;9.02;75.08;-20033.97;5050606;28;20224;-55
2022/02/24 09:21:08;;;;;;;5.63;2.83;;;7.80;99.90;;;9.17;74.46;-20038.94;5050638;28;20682;-55
2022/02/24 09:23:37;;;;;;;3.13;2.47;;;7.90;99.90;;;8.96;74.34;-20031.75;5051376;28;20232;-57
2022/02/24 09:26:05;;;;;;;11.00;7.27;;;7.80;99.90;;;9.08;74.92;-20036.03;5050429;28;20325;-60
2022/02/24 09:28:33;;;;;;;4.13;3.23;;;7.90;99.90;;;9.00;74.95;-20033.13;5050555;28;20765;-59
2022/02/24 09:31:01;;;;;;;4.07;2.80;;;7.90;99.90;;;9.07;75.10;-20035.50;5050231;28;20780;-59
2022/02/24 09:33:31;;;;;;;3.90;2.90;;;7.80;99.90;;;8.91;74.27;-20030.06;5050570;28;20307;-58
2022/02/24 09:35:59;;;;;;;6.57;2.87;;;7.90;99.90;;;8.92;76.33;-20030.56;5051401;28;20760;-58
2022/02/24 09:38:27;;;;;;;5.93;2.80;;;7.80;99.90;;;8.93;75.45;-20030.72;5051014;28;20254;-60
2022/02/24 09:40:56;;;;;;;4.97;2.63;;;7.80;99.90;;;8.79;75.83;-20026.13;5050570;28;20793;-59
2022/02/24 09:43:33;;;;;;;4.87;2.73;;;7.80;99.90;;;8.88;75.78;-20029.19;5050566;28;20692;-61
2022/02/24 09:46:04;;;;;;;4.10;2.60;;;7.70;99.90;;;8.91;76.40;-20030.06;5050802;28;20229;-61
2022/02/24 09:48:38;;;;;;;5.87;3.13;;;7.70;99.90;;;8.91;75.31;-20030.06;5051113;28;20225;-59
2022/02/24 09:51:06;;;;;;;5.80;3.33;;;7.80;99.90;;;9.01;75.86;-20033.63;5050653;28;20308;-60
2022/02/24 09:53:34;;;;;;;6.40;3.13;;;7.80;99.90;;;9.11;74.93;-20036.88;5051009;28;20229;-61
2022/02/24 09:56:04;;;;;;;3.77;2.90;;;7.80;99.90;;;8.92;77.50;-20030.38;5050555;28;20248;-61
2022/02/24 09:58:33;;;;;;;4.80;2.90;;;7.90;99.90;;;8.91;76.53;-20030.06;5050153;28;20295;-62
2022/02/24 10:01:02;;;;;;;7.83;2.73;;;7.80;99.90;;;8.92;76.64;-20030.56;5050291;28;20225;-60
2022/02/24 10:03:36;;;;;;;5.07;2.40;;;7.80;99.90;;;8.98;76.00;-20032.59;5050084;28;20228;-59
2022/02/24 10:06:05;;;;;;;4.37;2.50;;;7.90;99.90;;;9.07;75.94;-20035.69;5050097;28;20312;-59
2022/02/24 10:08:36;;;;;;;3.93;2.63;;;7.90;99.90;;;8.89;75.61;-20029.38;5050260;28;20293;-58
2022/02/24 10:11:19;;;;;;;5.23;2.97;;;7.90;99.90;;;9.01;75.55;-20033.63;5042989;28;20321;-57
2022/02/24 10:14:01;;;;;;;5.50;2.60;;;7.90;99.90;;;9.14;74.43;-20037.91;5040769;28;20700;-57
2022/02/24 10:16:30;;;;;;;5.43;2.50;;;8.00;99.90;;;8.99;75.74;-20032.97;5030072;28;20717;-61
2022/02/24 10:19:11;;;;;;;5.20;2.50;;;8.00;99.90;;;9.19;75.58;-20039.63;5030087;28;20234;-58
2022/02/24 10:21:40;;;;;;;3.90;2.47;;;8.00;99.90;;;9.01;75.33;-20033.47;5030051;28;20339;-59
2022/02/24 10:24:25;;;;;;;5.40;2.60;;;8.00;99.90;;;9.22;74.62;-20040.81;5030012;28;20308;-58
2022/02/24 10:27:13;;;;;;;4.77;2.63;;;8.00;99.90;;;9.08;75.62;-20036.03;5029869;28;20183;-59
2022/02/24 10:29:53;;;;;;;6.40;2.67;;;8.10;99.90;;;9.08;75.33;-20036.03;5030154;28;20523;-59
2022/02/24 10:32:32;;;;;;;4.10;2.50;;;8.00;99.90;;;9.06;75.70;-20035.34;5029556;28;20304;-59